x

St. Clair Shores, Mi (clsm4) Weather Station

10:41am - Tue 3rd Mar 2015 All times are CST. -6 hours from GMT.

  • Wind
    16mph, 21mph gusts
  • Air Temp 24°f
  • Sea Pressure 1013.9mb
  • St. Clair Shores, Mi
  • St. Clair Shores, Mi

More Historic Weather Station data

Upgrade to MSW Pro to gain access to the past 30 days of data for over 8000 Wavebouys and Weather Stations around the globe.

Join Pro

Comparision Forecast

View Surf forecast
   
Tue 03/03 10:41am 16 21 mph 1013.9mb 24f
10:00am 16 18 mph 1014.9mb 22f
9:50am 17 21 mph 1015.2mb 22f
9:40am 16 20 mph 1015.9mb 22f
9:30am 14 18 mph 1016.6mb 22f
9:20am 15 18 mph 1017.3mb 22f
9:10am 16 18 mph 1017.3mb 22f
9:00am 14 16 mph 1018.3mb 22f
8:50am 9 16 mph 1019mb 22f
8:40am 13 15 mph 1019mb 21f
8:30am 11 13 mph 1019.3mb 21f
8:20am 9 13 mph 1020.3mb 21f
8:10am 10 13 mph 1020.3mb 21f
8:00am 10 14 mph 1020.3mb 21f
7:50am 10 13 mph 1020.7mb 21f
7:40am 10 14 mph 1020.7mb 21f
7:30am 10 13 mph 1021mb 21f
7:20am 7 11 mph 1021.7mb 21f
7:10am 7 10 mph 1022mb 21f
7:00am 7 9 mph 1022mb 21f
6:50am 6 9 mph 1022mb 21f
6:40am 8 9 mph 1021.7mb 21f
6:30am 8 10 mph 1021.7mb 21f
6:20am 8 11 mph 1021.7mb 21f
6:10am 10 11 mph 1021.7mb 20f
6:00am 8 11 mph 1022mb 20f
5:50am 10 13 mph 1022.4mb 20f
5:40am 10 13 mph 1022.4mb 20f
5:30am 13 14 mph 1022.4mb 20f
5:20am 13 14 mph 1022.7mb 21f
5:10am 10 11 mph 1023mb 21f
5:00am 9 10 mph 1023mb 21f
4:50am 8 10 mph 1023.4mb 21f
4:40am 8
mph
1023.7mb 21f
4:30am 7 9 mph 1023.7mb 21f
4:20am 8 10 mph 1024mb 21f
4:10am 9 10 mph 1024mb 21f
4:00am 8 9 mph 1024.4mb 22f
3:50am 7 8 mph 1024.7mb 22f
3:40am 5 6 mph 1025.4mb 22f
3:30am 6 7 mph 1025.4mb 22f
3:20am 3 5 mph 1025.4mb 22f
3:10am 2 5 mph 1025.7mb 23f
3:00am 2 5 mph 1025.7mb 23f
2:50am 2 5 mph 1025.7mb 23f
2:40am 2 6 mph 1025.7mb 23f
2:30am 3 6 mph 1025.7mb 23f
2:20am 2 5 mph 1025.7mb 23f
2:10am 2 5 mph 1026.1mb 23f
2:00am 3 6 mph 1026.1mb 23f
1:50am 2 7 mph 1026.4mb 23f
1:40am 5 7 mph 1026.8mb 23f
1:30am 3 7 mph 1026.8mb 23f
1:20am 3 7 mph 1027.1mb 23f
1:10am 5 7 mph 1027.1mb 23f
1:00am 5 7 mph 1027.1mb 23f
12:50am 5 8 mph 1027.4mb 23f
12:40am 6 8 mph 1027.4mb 22f
12:30am 3 5 mph 1027.4mb 17f
12:20am  -  1 mph 1027.4mb 15f
12:10am  -  1 mph 1027.4mb 15f
12:00am  -  2 mph 1027.4mb 15f
Mon 03/02 11:50pm  -  2 mph 1027.4mb 15f
11:40pm  -  1 mph 1027.4mb 14f
11:30pm  -  mph 1027.4mb 14f
11:20pm  -  2 mph 1027.8mb 14f
11:10pm  -  1 mph 1027.8mb 13f
11:00pm  -  2 mph 1027.8mb 13f
10:50pm  -  1 mph 1028.1mb 13f
10:40pm  -  mph 1028.4mb 13f
10:30pm  -  2 mph 1028.1mb 12f
10:20pm 3 5 mph 1028.8mb 13f
10:10pm  -  2 mph 1028.8mb 13f
10:00pm 2 3 mph 1028.8mb 13f
9:50pm  -  6 mph 1028.8mb 13f
9:40pm  -  1 mph 1028.8mb 11f
9:30pm  -  2 mph 1028.8mb 10f
9:20pm 1 2 mph 1028.8mb 13f
9:10pm  -  2 mph 1028.8mb 13f
9:00pm 2 7 mph 1028.8mb 14f
8:50pm 5 6 mph 1028.8mb 13f
8:40pm 2
mph
1028.8mb 14f
8:30pm 1 3 mph 1029.1mb 15f
8:20pm 2 6 mph 1029.5mb 16f
8:10pm 3 5 mph 1029.5mb 17f
8:00pm 5 6 mph 1029.5mb 17f
7:50pm 5
mph
1029.1mb 16f
7:40pm 2 3 mph 1029.5mb 20f
7:30pm  -  1 mph 1029.8mb 20f
7:20pm 1 5 mph 1029.8mb 21f
7:10pm 2 3 mph 1029.8mb 20f
7:00pm 2 3 mph 1030.1mb 19f
6:50pm 3
mph
1029.8mb 17f
6:40pm 1 3 mph 1030.1mb 18f
6:30pm 3 6 mph 1030.5mb 20f
6:20pm 5 7 mph 1030.1mb 20f
6:10pm 6 7 mph 1030.1mb 19f
6:00pm 6 9 mph 1030.1mb 20f
5:50pm 8
mph
1030.1mb 20f
5:40pm  -  6 mph 1030.1mb 26f
5:30pm 3 6 mph 1030.1mb 28f
5:20pm 5 7 mph 1030.1mb 28f
5:10pm 5 7 mph 1030.1mb 28f
5:00pm 3 6 mph 1030.1mb 29f
4:50pm 6 10 mph 1030.1mb 30f
4:40pm 5 11 mph 1030.1mb 31f
4:30pm 6 9 mph 1030.1mb 31f
4:20pm 6 11 mph 1030.1mb 31f
4:10pm 7 11 mph 1030.1mb 31f
4:00pm 6 11 mph 1030.1mb 31f
3:50pm 8 14 mph 1030.1mb 31f
3:40pm 6 11 mph 1030.1mb 31f
3:30pm 8 13 mph 1030.1mb 32f
3:20pm 5 14 mph 1030.1mb 31f
3:10pm 10 16 mph 1030.1mb 32f
3:00pm 6 11 mph 1030.1mb 31f
2:50pm 9 14 mph 1030.5mb 32f
2:40pm 7 13 mph 1030.5mb 31f
2:30pm 11 16 mph 1030.5mb 31f
2:20pm 9 14 mph 1030.5mb 31f
2:10pm 8 14 mph 1030.5mb 31f
2:00pm 9 13 mph 1030.5mb 31f
1:50pm 8 13 mph 1030.5mb 31f
1:40pm 8 15 mph 1030.5mb 30f
1:30pm 7 14 mph 1030.5mb 31f
1:20pm 10 15 mph 1030.1mb 30f
1:10pm 9 15 mph 1030.1mb 30f
1:00pm 11 16 mph 1030.1mb 30f
12:50pm 5 11 mph 1030.5mb 30f
12:40pm 10 16 mph 1030.8mb 29f
12:30pm 8 14 mph 1030.5mb 29f
12:20pm 11 16 mph 1030.8mb 29f
12:10pm 10 16 mph 1031.2mb 29f
12:00pm 10 16 mph 1030.8mb 29f
11:50am 13 17 mph 1031.2mb 29f
11:40am 13 18 mph 1031.2mb 29f
11:30am 8 14 mph 1031.2mb 29f
11:20am 5 13 mph 1031.2mb 29f
11:10am 8 11 mph 1031.2mb 29f
11:00am 8 14 mph 1031.2mb 28f
10:50am 7 10 mph 1030.8mb 28f
10:40am 7 13 mph 1030.8mb 28f
10:30am 7 11 mph 1030.8mb 27f
10:20am 9 14 mph 1030.8mb 27f
10:10am 7 11 mph 1030.8mb 27f
10:00am 7 15 mph 1030.5mb 26f
9:50am 9 14 mph 1030.5mb 26f
9:40am 8 13 mph 1030.5mb 26f
9:30am 8 13 mph 1030.5mb 26f
9:20am 10 17 mph 1030.5mb 25f
9:10am 9 15 mph 1030.1mb 25f
9:00am 10 17 mph 1030.1mb 25f
8:50am 10 15 mph 1030.1mb 25f
8:40am 8 16 mph 1030.1mb 25f
8:30am 8 16 mph 1030.1mb 24f
8:20am 9 15 mph 1029.8mb 24f
8:10am 10 17 mph 1029.8mb 24f
8:00am 7 14 mph 1029.8mb 24f
7:50am 9 14 mph 1029.5mb 23f
7:40am 8 16 mph 1029.5mb 23f
7:30am 8 14 mph 1029.5mb 23f
7:20am 9 14 mph 1029.1mb 22f
7:10am 7 14 mph 1029.1mb 22f
7:00am 9 11 mph 1028.4mb 22f
6:50am 9 13 mph 1028.4mb 22f
6:40am 8 13 mph 1028.1mb 21f
6:30am 8 11 mph 1027.8mb 21f
6:20am 8 13 mph 1027.8mb 21f
6:10am 8 13 mph 1027.8mb 21f
6:00am 8 13 mph 1027.4mb 21f
5:50am 10 15 mph 1027.4mb 21f
5:40am 8 15 mph 1027.4mb 22f
5:30am 10 17 mph 1027.4mb 22f
5:20am 10 14 mph 1027.1mb 22f
5:10am 8 13 mph 1026.8mb 22f
5:00am 10 14 mph 1026.8mb 22f
4:50am 10 15 mph 1026.8mb 22f
4:40am 9 14 mph 1026.4mb 22f
4:30am 10 14 mph 1026.1mb 22f
4:20am 9 17 mph 1026.1mb 22f
4:10am 13 18 mph 1025.7mb 22f
4:00am 9 16 mph 1025.4mb 22f
3:50am 11 17 mph 1025.4mb 23f
3:40am 11 15 mph 1025.1mb 23f
3:30am 10 17 mph 1024.7mb 23f
3:20am 13 17 mph 1024.7mb 23f
3:10am 13 18 mph 1024.4mb 23f
3:00am 15 21 mph 1024mb 23f
2:50am 14 18 mph 1024mb 23f
2:40am 9 15 mph 1024mb 23f
2:30am 8 14 mph 1023.7mb 23f
2:20am 9 14 mph 1024mb 23f
2:10am 9 11 mph 1024mb 23f
2:00am 7 13 mph 1023.7mb 23f
1:50am 9 11 mph 1023.7mb 22f
1:40am 8 13 mph 1023.7mb 23f
1:30am 7 13 mph 1023.7mb 23f
1:20am 9 16 mph 1023.7mb 23f
1:10am 11 17 mph 1023.7mb 23f
1:00am 9 14 mph 1023.7mb 23f
12:50am 11 15 mph 1023.7mb 23f
12:40am 11 17 mph 1023.7mb 23f
12:30am 9 14 mph 1023.4mb 24f
12:20am 11 15 mph 1023.4mb 24f
12:10am 10 17 mph 1023mb 24f
12:00am 9 18 mph 1023.4mb 24f
Sun 03/01 11:50pm 17 21 mph 1023.4mb 24f
11:40pm 11 23 mph 1023.4mb 24f
11:30pm 13 17 mph 1023.7mb 24f
11:20pm 10 17 mph 1023.4mb 24f
11:10pm 11 16 mph 1023.4mb 23f
11:00pm 8 13 mph 1023.4mb 23f
10:50pm 7 11 mph 1023.4mb 23f
10:40pm 7 10 mph 1023.7mb 23f
10:30pm 6 9 mph 1023.4mb 22f
10:20pm 6 10 mph 1023.7mb 22f
10:10pm 6 14 mph 1023.7mb 22f
10:00pm 7 10 mph 1023.7mb 21f
9:50pm 7 9 mph 1023.4mb 21f
9:40pm 6 10 mph 1023.4mb 21f
9:30pm 6 8 mph 1023.4mb 21f
9:20pm 7 9 mph 1023.4mb 21f
9:10pm 6 8 mph 1023.4mb 21f
9:00pm 7 9 mph 1023.4mb 21f
8:50pm 6 10 mph 1023.4mb 21f
8:40pm 6 9 mph 1023mb 21f
8:30pm 6 8 mph 1023mb 21f
8:20pm 6 8 mph 1023mb 21f
8:10pm 5 7 mph 1023mb 21f
8:00pm 6 7 mph 1023mb 22f
7:50pm 6 9 mph 1023mb 22f
7:40pm 7 8 mph 1023mb 22f
7:30pm 6 9 mph 1023mb 22f
7:20pm 6 9 mph 1023mb 23f
7:10pm 5 9 mph 1023.4mb 23f
7:00pm 6 8 mph 1023.4mb 23f
6:50pm 5 8 mph 1023.7mb 23f
6:40pm 6 8 mph 1023.7mb 23f
6:30pm 8 10 mph 1023.4mb 23f
6:20pm 5 9 mph 1023.4mb 24f
6:10pm 6 8 mph 1023.4mb 24f
6:00pm 7 9 mph 1023.4mb 24f
5:50pm 6 8 mph 1023.4mb 24f
5:40pm 6 8 mph 1023.4mb 24f
5:30pm 5 7 mph 1023.4mb 24f
5:20pm 6 10 mph 1023.4mb 25f
5:10pm 7 10 mph 1023mb 25f
5:00pm 7 10 mph 1023.4mb 25f
4:50pm 7 9 mph 1023.4mb 25f
4:40pm 6 9 mph 1023.4mb 25f
4:30pm 7 9 mph 1023.7mb 25f
4:20pm 6 9 mph 1023.7mb 25f
4:10pm 6 10 mph 1023.7mb 25f
4:00pm 7 11 mph 1023.7mb 25f
3:50pm 7 10 mph 1024mb 25f
3:40pm 7 9 mph 1024mb 25f
3:30pm 6 9 mph 1024.4mb 25f
3:20pm 6 8 mph 1024.4mb 26f
3:10pm 6 9 mph 1024.4mb 25f
3:00pm 6 10 mph 1024.4mb 25f
2:50pm 7 8 mph 1024.4mb 25f
2:40pm 7 10 mph 1024.4mb 25f
2:30pm 6 9 mph 1024.4mb 24f
2:20pm 6 9 mph 1024.7mb 24f
2:10pm 7 9 mph 1024.7mb 24f
2:00pm 6 9 mph 1024.7mb 24f
1:50pm 6 9 mph 1025.1mb 24f
1:40pm 8 10 mph 1025.1mb 24f
1:30pm 7 10 mph 1025.1mb 24f
1:20pm 5 8 mph 1025.4mb 24f
1:10pm 6 8 mph 1025.4mb 22f
1:00pm 8 9 mph 1025.7mb 21f
12:50pm 6 8 mph 1025.7mb 20f
12:40pm 6 8 mph 1026.1mb 20f
12:30pm 6 7 mph 1026.1mb 20f
12:20pm 6 7 mph 1026.1mb 19f
12:10pm 6 7 mph 1026.4mb 19f
12:00pm 6 8 mph 1026.4mb 19f
11:50am 7
mph
1026.8mb 19f
11:40am 7 8 mph 1026.8mb 19f
11:30am 7
mph
1026.8mb 18f
11:20am 6 8 mph 1027.1mb 18f
11:10am 7
mph
1027.4mb 18f
11:00am 6 7 mph 1027.4mb 18f
10:50am 5 6 mph 1027.8mb 18f
10:40am 5
mph
1027.8mb 18f
10:30am 3
mph
1027.8mb 18f
10:20am 3
mph
1028.1mb 18f
10:10am 2 3 mph 1028.1mb 18f
10:00am 1 2 mph 1028.4mb 19f
9:50am 2 3 mph 1028.4mb 18f
9:40am 1 2 mph 1028.4mb 18f
9:30am 2 3 mph 1028.4mb 17f
9:20am 2
mph
1028.8mb 17f
9:10am 2
mph
1028.8mb 17f
9:00am  -  1 mph 1029.1mb 17f
8:50am  -  1 mph 1029.5mb 16f
8:40am  -  1 mph 1029.5mb 16f
8:30am  -  1 mph 1029.5mb 16f
8:20am  -  2 mph 1029.5mb 15f
8:10am  -  2 mph 1029.8mb 15f
8:00am  -  2 mph 1029.8mb 15f
7:50am 1 3 mph 1029.8mb 15f
7:40am 2 3 mph 1029.8mb 14f
7:30am 3 5 mph 1029.8mb 14f
7:20am 3 5 mph 1029.8mb 14f
7:10am 5
mph
1029.8mb 14f
7:00am 3 5 mph 1029.8mb 14f
6:50am 3 5 mph 1029.8mb 14f
6:40am 3
mph
1029.8mb 14f
6:30am 3
mph
1029.8mb 13f
6:20am 2 3 mph 1029.8mb 13f
6:10am 2 3 mph 1030.1mb 13f
6:00am 2 3 mph 1030.5mb 13f
5:50am 2 5 mph 1030.5mb 13f
5:40am 3 5 mph 1030.5mb 13f
5:30am 3 5 mph 1030.5mb 13f
5:20am 2 3 mph 1030.8mb 13f
5:10am 2 3 mph 1030.8mb 13f
5:00am 3
mph
1030.8mb 13f
4:50am 2 3 mph 1030.8mb 13f
4:40am 2 3 mph 1030.8mb 13f
4:30am 2 3 mph 1030.8mb 13f
4:20am 3 5 mph 1030.5mb 13f
4:10am 5
mph
1030.5mb 13f
4:00am 3 5 mph 1030.5mb 13f
3:50am 3 5 mph 1030.5mb 13f
3:40am 5
mph
1030.5mb 12f
3:30am 3 5 mph 1030.8mb 12f
3:20am 3 5 mph 1030.8mb 12f
3:10am 3 5 mph 1030.8mb 12f
3:00am 3 5 mph 1031.2mb 12f
2:50am 3 5 mph 1031.2mb 12f
2:40am 3 5 mph 1031.5mb 12f
2:30am 5
mph
1031.5mb 12f
2:20am 5 6 mph 1031.8mb 12f
2:10am 5
mph
1032.2mb 13f
2:00am 3 5 mph 1032.5mb 13f
1:50am 3
mph
1032.5mb 13f
1:40am 2 5 mph 1032.8mb 13f
1:30am 3 5 mph 1032.8mb 13f
1:20am 5 6 mph 1033.2mb 13f
1:10am 5 6 mph 1032.8mb 14f
1:00am 6 7 mph 1033.2mb 14f
12:50am 6 7 mph 1033.2mb 14f
12:40am 5 20 mph 1033.5mb 14f
12:30am 6 7 mph 1033.9mb 14f
12:20am 5 8 mph 1033.9mb 15f
12:10am 5 7 mph 1033.9mb 15f
12:00am 5 7 mph 1033.9mb 15f
Sat 02/28 11:50pm 5 7 mph 1034.2mb 15f
11:40pm 5 7 mph 1034.2mb 15f
11:30pm 5 7 mph 1034.2mb 15f
11:20pm 3 6 mph 1034.2mb 14f
11:10pm 3 6 mph 1034.5mb 14f
11:00pm 5 6 mph 1034.5mb 14f
10:50pm 2 5 mph 1034.5mb 14f
10:40pm 2 5 mph 1034.9mb 14f
10:30pm 2 6 mph 1034.9mb 14f
10:20pm 2 6 mph 1035.2mb 14f
10:10pm 3 7 mph 1035.6mb 14f
10:00pm 5 6 mph 1035.2mb 13f
9:50pm 1 5 mph 1035.6mb 13f
9:40pm 5 7 mph 1035.6mb 13f
9:30pm 5 7 mph 1035.6mb 13f
9:20pm 6 7 mph 1035.9mb 13f
9:10pm 6 8 mph 1035.9mb 12f
9:00pm 7 8 mph 1035.9mb 12f
8:50pm 7 8 mph 1036.2mb 12f
8:40pm 6 8 mph 1036.2mb 12f
8:30pm 5 6 mph 1036.2mb 11f
8:20pm 6
mph
1036.2mb 11f
8:10pm 5 7 mph 1036.2mb 10f
8:00pm 7 8 mph 1036.2mb 11f
7:50pm 7 8 mph 1036.9mb 10f
7:40pm 5 6 mph 1036.9mb 11f
7:30pm 5
mph
1036.9mb 11f
7:20pm 3 6 mph 1036.9mb 11f
7:10pm 5 7 mph 1037.3mb 11f
7:00pm 6 7 mph 1037.3mb 12f
6:50pm 5 8 mph 1037.3mb 13f
6:40pm 7 9 mph 1037.3mb 13f
6:30pm 6 8 mph 1037.3mb 13f
6:20pm 5 8 mph 1037.6mb 12f
6:10pm 6 8 mph 1037.3mb 12f
6:00pm 6 10 mph 1037.6mb 14f
5:50pm 7 9 mph 1037.6mb 13f
5:40pm 8 10 mph 1037.3mb 14f
5:00pm 5 13 mph 1037.9mb 17f
4:50pm 8 11 mph 1037.9mb 18f
4:40pm 8 11 mph 1037.9mb 19f
4:30pm 9 13 mph 1037.9mb 19f
4:20pm 10 14 mph 1038.3mb 19f
4:10pm 9 15 mph 1038.3mb 19f
4:00pm 11 14 mph 1038.3mb 18f
3:50pm 11 15 mph 1038.3mb 19f
3:40pm 10 15 mph 1038.3mb 20f
3:30pm 13 15 mph 1038.3mb 20f
3:20pm 13 15 mph 1038.6mb 20f
3:10pm 11 15 mph 1038.6mb 20f
3:00pm 13 17 mph 1038.6mb 20f
2:50pm 13 17 mph 1038.9mb 20f
2:40pm 14 20 mph 1038.9mb 20f
2:30pm 15 18 mph 1038.9mb 20f
2:20pm 13 18 mph 1039.3mb 20f
2:10pm 13 18 mph 1039.3mb 21f
2:00pm 13 20 mph 1039.3mb 20f
1:50pm 16 20 mph 1039.3mb 20f
1:40pm 13 20 mph 1039.3mb 20f
1:30pm 15 20 mph 1039.6mb 20f
1:20pm 17 20 mph 1039.6mb 20f
1:10pm 16 17 mph 1039.6mb 20f
1:00pm 10 15 mph 1040mb 22f
12:50pm 13 17 mph 1040mb 22f
12:40pm 10 13 mph 1040.3mb 23f
12:30pm 7 10 mph 1040.6mb 23f
12:20pm 3 13 mph 1040.6mb 23f
12:10pm 10 16 mph 1041mb 22f
12:00pm 9 13 mph 1041mb 22f
11:50am 7 15 mph 1041.3mb 22f
11:40am 8 13 mph 1041.3mb 22f
11:30am 9 13 mph 1041.3mb 22f
11:20am 8 13 mph 1041.3mb 21f
11:10am 7 11 mph 1041.3mb 22f
11:00am 9 13 mph 1041.7mb 21f
10:50am 8 13 mph 1041.7mb 20f
10:40am 9 15 mph 1041.7mb 18f
10:30am 9 14 mph 1041.7mb 20f
10:20am 8 13 mph 1042mb 19f
10:10am 9 14 mph 1042mb 18f
10:00am 11 14 mph 1042mb 18f
9:50am 5 9 mph 1042mb 19f
9:40am 3 9 mph 1042mb 17f
9:30am 6 9 mph 1042mb 17f
9:20am 6 11 mph 1042mb 16f
9:10am 7 10 mph 1042mb 16f
9:00am 7 11 mph 1042mb 15f
8:50am 6 8 mph 1042mb 15f
8:40am 6 8 mph 1042.3mb 14f
8:30am 2 3 mph 1042mb 10f
8:20am 1 6 mph 1042mb 10f
8:10am 2 5 mph 1042mb 14f
8:00am 2 6 mph 1041.7mb 11f
7:50am 5 7 mph 1041.7mb 10f
7:40am 3 6 mph 1041.7mb 9f
7:30am 5 7 mph 1041.7mb 8f
7:20am 3 5 mph 1041.7mb 8f
7:10am 2 5 mph 1041.3mb 7f
7:00am 2 5 mph 1041.3mb 6f
6:50am 3 5 mph 1041.3mb 6f
6:40am 3 5 mph 1041.3mb 6f
6:30am 3 5 mph 1041mb 5f
6:20am 5
mph
1040.6mb 5f
6:10am 3
mph
1040.6mb 5f
6:00am 3 5 mph 1040.3mb 5f
5:50am 3 5 mph 1040.3mb 5f
5:40am 5
mph
1040.3mb 5f
5:30am 3 5 mph 1040.3mb 6f
5:20am 5 7 mph 1040.3mb 6f
5:10am 3 5 mph 1040.3mb 6f
5:00am 5 6 mph 1040.3mb 6f
4:50am 5 6 mph 1040mb 6f
4:40am 5 6 mph 1040mb 6f
4:30am 3 5 mph 1040mb 6f
4:20am 3 5 mph 1040mb 6f
4:10am 5 6 mph 1040mb 6f
4:00am 6 7 mph 1040mb 6f
3:50am 5 6 mph 1039.6mb 6f
3:40am 3 5 mph 1039.3mb 6f
3:30am 5 6 mph 1039.3mb 6f
3:20am 5 6 mph 1039.3mb 7f
3:10am 3 6 mph 1039.3mb 7f
3:00am 5 6 mph 1039.3mb 7f
2:50am 5 6 mph 1039.3mb 7f
2:40am 5 6 mph 1039.3mb 7f
2:30am 3 6 mph 1039.3mb 7f
2:20am 5 6 mph 1039.3mb 7f
2:10am 5 6 mph 1039.3mb 7f
2:00am 3 6 mph 1039.3mb 8f
1:50am 5 6 mph 1039.3mb 8f
1:40am 5 6 mph 1039.3mb 8f
1:30am 5 6 mph 1038.9mb 8f
1:20am 5 7 mph 1038.9mb 8f
1:10am 5 7 mph 1038.9mb 9f
1:00am 5 7 mph 1038.6mb 9f
12:50am 5 7 mph 1038.6mb 9f
12:40am 5 7 mph 1038.6mb 10f
12:30am 5 8 mph 1038.3mb 10f
12:20am 6 8 mph 1038.3mb 10f
12:10am 6 8 mph 1038.6mb 10f
12:00am 6 7 mph 1038.3mb 9f
Fri 02/27 11:50pm 5 6 mph 1038.3mb 9f
11:40pm 2 3 mph 1038.3mb 9f
11:30pm 2 5 mph 1038.3mb 9f
11:20pm 3
mph
1038.3mb 9f
11:10pm 3 5 mph 1038.3mb 9f
11:00pm 3 5 mph 1038.3mb 10f
10:50pm 3 6 mph 1038.6mb 10f
10:40pm 3 5 mph 1038.6mb 10f
10:30pm 3 5 mph 1038.3mb 10f
10:20pm 3 5 mph 1038.3mb 10f
10:10pm 3 6 mph 1038.3mb 11f
10:00pm 5 6 mph 1038.3mb 11f
9:50pm 5 6 mph 1037.9mb 11f
9:40pm 5 6 mph 1037.9mb 11f
9:30pm 3 6 mph 1037.9mb 11f
9:20pm 3 5 mph 1037.9mb 11f
9:10pm 2 5 mph 1037.9mb 11f
9:00pm 3 7 mph 1037.9mb 12f
8:50pm 3 6 mph 1037.6mb 12f
8:40pm 3 6 mph 1037.3mb 12f
8:30pm 5 7 mph 1037.3mb 13f
8:20pm 5 7 mph 1037.3mb 13f
8:10pm 5 7 mph 1037.3mb 13f
8:00pm 3 8 mph 1036.9mb 12f
7:50pm 6 8 mph 1036.6mb 12f
7:40pm  -  3 mph 1036.6mb 14f
7:30pm 3 5 mph 1036.2mb 14f
7:20pm 3 5 mph 1036.2mb 14f
7:10pm 5 7 mph 1036.2mb 15f
7:00pm 5 7 mph 1036.2mb 15f
6:50pm 5 8 mph 1036.2mb 15f
6:40pm 6 8 mph 1036.2mb 15f
6:30pm 6 8 mph 1035.9mb 15f
6:20pm 6 9 mph 1035.9mb 16f
6:10pm 6 10 mph 1035.9mb 16f
6:00pm 7 9 mph 1035.6mb 16f
5:50pm 6 8 mph 1035.6mb 16f
5:40pm 6 10 mph 1035.6mb 17f
5:30pm 7 9 mph 1035.2mb 17f
5:20pm 6 8 mph 1035.2mb 17f